Pellston, MI (49769)

8:07 AM EDT on September 04, 2015 (GMT -0400)
Creekside, 4 Miles WSW Bliss | | Change Station
CLOSE
Current Station
Personal Weather Station
Location: Bliss Township, MI
Elevation: 708 ft
Nearby Weather Stations

Elev 708 ft 45.65 °N, 84.92 °W | Updated 6 seconds ago

Overcast
Overcast
64.3 °F
Feels Like 64.3 °F
N
5.0
Wind Variable Wind from East
Gusts 9.0 mph

Today
High -- | Low -- °F
--% Chance of Precip.
Yesterday
High -- | Low -- °F
Precip. -- in
7:04 AM 8:12 PM
Waning Gibbous, 60% visible
Pressure 30.04 in
Visibility 10.0 miles
Clouds Few 9500 ft
Dew Point 59 °F
Humidity 82%
Rainfall 0.00 in
Snow Depth Not available.
UV 0 out of 12
Pollen 10.10 out of 12
Air Quality Not available.
Flu Activity Not available.
METAR KPLN 041154Z AUTO 03003KT 10SM FEW095 18/16 A3005 RMK AO2 SLP173 70039 T01830161 10189 20167 53012
Pressure 30.04 in
Visibility 10.0 miles
Clouds Few 9500 ft
Dew Point 59 °F
Humidity 82%
Rainfall 0.00 in
Snow Depth Not available.
UV 0 out of 12
Pollen 10.10 out of 12
Air Quality Not available.
Flu Activity Not available.
METAR KPLN 041154Z AUTO 03003KT 10SM FEW095 18/16 A3005 RMK AO2 SLP173 70039 T01830161 10189 20167 53012
Nowcast | as of 8:00 am EDT on September 4, 2015

At 9 am...mostly cloudy. Patchy drizzle. Temperature 67. East winds 11 mph. At 11 am...mostly cloudy. Scattered showers. Temperature 71. East winds 11 mph. At 1 PM...mostly cloudy. Scattered showers. Temperature 72. East winds 9 mph. At 3 PM...mostly cloudy. Scattered showers and chance of thunderstorms. Temperature 74. East winds 9 mph.

×

10-Day Weather Forecast

×

Almanac

Astronomy

Sep. 04, 2015 Rise Set
Actual Time
Civil Twilight
Nautical Twilight
Astronomical Twilight
Moon
Length of Visible Light
Length of Day
Tomorrow will be .
, % of the Moon is Illuminated

Today's Extremes

State Highs State Lows

Community

WunderPhotos

Upload Photos

1,852,161 photos uploaded!

WunderBlogs® & News

Nearby

Air Quality

  Air Quality AQ Index Pollutant
Not available.

Snow Depth

Station Depth Elevation

Earthquake Activity

City Distance Mag. Time & Date
Minimum magnitude displayed is 2.5.

Coastal Water Temperatures

Place Temperature

Stations

Nearby Weather Stations

Station Location Temp. Windchill Dew Point Humidity Wind Precip. Elev Updated Type